CDT,Max TemperatureF,Mean TemperatureF,Min TemperatureF,Max Dew PointF,MeanDew PointF,Min DewpointF,Max Humidity, Mean Humidity, Min Humidity, Max Sea Level PressureIn, Mean Sea Level PressureIn, Min Sea Level PressureIn, Max VisibilityMiles, Mean VisibilityMiles, Min VisibilityMiles, Max Wind SpeedMPH, Mean Wind SpeedMPH, Max Gust SpeedMPH,PrecipitationIn, CloudCover, Events, WindDirDegrees
2013-7-1,97,86,75,74,68,61,87,59,30,29.96,29.89,29.85,10,10,10,15,6,21,0.00,2,,51
2013-7-2,98,87,75,74,64,53,74,49,24,30.03,29.97,29.93,10,10,10,16,6,21,T,3,,87
2013-7-3,95,84,73,72,66,58,84,58,31,30.01,29.96,29.89,10,10,10,21,8,26,0.00,1,,174
2013-7-4,94,83,71,72,69,64,93,66,39,29.97,29.93,29.88,10,10,8,18,8,31,0.00,1,,129
2013-7-5,95,84,73,74,70,64,87,62,36,29.96,29.91,29.84,10,10,7,18,8,24,0.00,2,,110
2013-7-6,94,85,75,76,73,70,87,68,49,29.90,29.87,29.83,10,10,7,24,10,28,0.00,2,,107
2013-7-7,96,87,78,76,73,69,85,64,43,29.98,29.91,29.87,10,10,10,28,11,33,0.00,2,,139
2013-7-8,95,87,78,76,73,70,79,64,49,30.09,30.03,29.97,10,10,9,30,13,37,T,3,Rain,140
2013-7-9,97,88,78,77,74,72,91,68,45,30.11,30.07,30.02,10,10,10,20,10,31,0.00,2,,128
2013-7-10,97,88,78,76,73,70,91,68,45,30.07,30.02,29.95,10,10,10,22,10,31,0.00,2,,139
2013-7-11,98,87,76,75,72,68,87,64,40,30.00,29.96,29.90,10,10,10,22,11,26,0.00,2,,155
2013-7-12,98,87,75,74,72,68,87,64,40,29.95,29.92,29.89,10,10,10,21,9,28,0.00,1,,150
2013-7-13,98,87,76,75,70,65,87,61,35,29.97,29.91,29.87,10,10,10,17,8,29,0.00,1,,147
2013-7-14,98,87,76,74,71,68,87,64,40,29.91,29.88,29.83,10,10,10,23,12,28,0.00,1,,158
2013-7-15,96,88,80,75,73,71,79,64,49,29.96,29.90,29.86,10,10,10,24,15,31,0.00,2,,139
2013-7-16,89,83,77,76,74,72,85,74,63,30.04,29.99,29.94,10,8,1,30,12,37,0.85,4,Rain,121
2013-7-17,82,78,74,75,73,71,91,85,79,30.15,30.09,30.03,10,8,0,23,7,28,1.84,6,Rain-Thunderstorm,102
2013-7-18,90,84,77,75,73,72,88,72,56,30.12,30.06,29.98,10,10,9,17,9,23,0.04,3,Rain,83
2013-7-19,93,85,76,76,74,72,94,75,56,30.04,29.98,29.91,10,10,10,20,7,24,0.00,2,,113
2013-7-20,92,84,76,76,74,73,91,74,56,29.98,29.92,29.86,10,10,8,17,8,22,T,2,Rain,130
2013-7-21,92,86,79,79,76,74,88,72,56,29.95,29.91,29.88,10,10,10,23,13,28,0.00,2,,157
2013-7-22,94,88,81,77,76,74,91,74,56,29.99,29.95,29.90,10,10,7,29,16,37,0.00,2,,155
2013-7-23,95,87,79,77,75,73,85,69,52,30.00,29.96,29.90,10,10,7,25,15,31,0.00,2,,160
2013-7-24,95,88,80,77,75,73,85,69,52,29.97,29.93,29.87,10,10,7,20,11,24,0.00,2,,159
2013-7-25,96,87,77,78,75,73,88,68,48,30.01,29.98,29.96,10,10,6,21,11,26,0.00,1,,152
2013-7-26,96,88,79,77,75,74,91,74,56,30.01,29.97,29.90,10,10,8,26,14,32,0.00,1,,164
2013-7-27,100,91,81,76,74,71,85,65,45,29.96,29.89,29.81,10,10,9,24,12,30,0.00,2,,174
2013-7-28,95,87,79,77,75,73,91,72,52,29.93,29.90,29.86,10,10,7,26,15,33,0.00,3,,157
2013-7-29,94,87,80,77,75,73,91,72,52,30.05,29.98,29.93,10,9,5,26,17,35,0.00,3,,156
2013-7-30,96,88,80,77,75,74,91,70,49,30.08,30.04,30.00,10,9,5,25,14,31,0.00,2,,152
2013-7-31,97,86,74,76,74,70,87,65,42,30.08,30.03,29.96,10,10,6,17,9,24,0.00,2,,149